createdAt,value
2023-03-08T00:01:23.274Z,1.30
2023-03-08T00:05:24.984Z,1.20
2023-03-08T00:09:26.636Z,1.20
2023-03-08T00:13:28.295Z,1.20
2023-03-08T00:17:29.980Z,1.20
2023-03-08T00:21:31.630Z,1.10
2023-03-08T00:25:33.280Z,1.10
2023-03-08T00:29:34.950Z,1.20
2023-03-08T00:33:37.018Z,1.10
2023-03-08T00:37:38.700Z,1.20
2023-03-08T00:41:40.594Z,1.20
2023-03-08T00:45:42.289Z,1.20
2023-03-08T00:49:44.485Z,1.30
2023-03-08T00:53:46.591Z,1.30
2023-03-08T00:57:48.206Z,1.30
2023-03-08T01:01:50.069Z,1.30
2023-03-08T01:05:54.371Z,1.30
2023-03-08T01:09:56.370Z,1.40
2023-03-08T01:13:58.273Z,1.30
2023-03-08T01:17:59.936Z,1.20
2023-03-08T01:22:01.559Z,1.20
2023-03-08T01:26:08.726Z,1.20
2023-03-08T01:30:10.994Z,1.30
2023-03-08T01:34:12.638Z,1.30
2023-03-08T01:38:14.277Z,1.20
2023-03-08T01:42:15.969Z,1.20
2023-03-08T01:46:25.968Z,1.20
2023-03-08T01:50:27.736Z,1.20
2023-03-08T01:54:38.611Z,1.20
2023-03-08T01:58:43.601Z,1.20
2023-03-08T02:02:51.920Z,1.20
2023-03-08T02:06:53.612Z,1.20
2023-03-08T02:10:57.106Z,1.20
2023-03-08T02:14:58.879Z,1.20
2023-03-08T02:19:08.052Z,1.20
2023-03-08T02:23:17.045Z,1.20
2023-03-08T02:27:24.270Z,1.20
2023-03-08T02:31:26.001Z,1.20
2023-03-08T02:35:28.008Z,1.10
2023-03-08T02:39:29.715Z,1.20
2023-03-08T02:43:31.586Z,1.20
2023-03-08T02:47:33.601Z,1.20
2023-03-08T02:51:35.345Z,1.20
2023-03-08T02:55:37.157Z,1.20
2023-03-08T02:59:39.310Z,1.20
2023-03-08T03:03:41.641Z,1.20
2023-03-08T03:07:43.979Z,1.10
2023-03-08T03:11:45.627Z,1.10
2023-03-08T03:15:47.318Z,1.10
2023-03-08T03:19:48.982Z,1.20
2023-03-08T03:23:50.637Z,1.20
2023-03-08T03:27:54.054Z,1.20
2023-03-08T03:31:55.801Z,1.20
2023-03-08T03:35:57.496Z,1.20
2023-03-08T03:39:59.170Z,1.10
2023-03-08T03:44:00.903Z,1.00
2023-03-08T03:48:02.637Z,1.00
2023-03-08T03:52:04.452Z,1.10
2023-03-08T03:56:08.888Z,1.10
2023-03-08T04:00:11.252Z,1.10
2023-03-08T04:04:12.899Z,1.20
2023-03-08T04:08:14.612Z,1.20
2023-03-08T04:12:16.322Z,1.20
2023-03-08T04:16:32.286Z,1.30
2023-03-08T04:20:33.955Z,1.30
2023-03-08T04:24:35.635Z,1.20
2023-03-08T04:28:37.366Z,1.20
2023-03-08T04:32:39.272Z,1.20
2023-03-08T04:36:40.934Z,1.20
2023-03-08T04:41:24.803Z,1.20
2023-03-08T04:45:26.461Z,1.10
2023-03-08T04:49:28.194Z,1.20
2023-03-08T04:53:31.260Z,1.20
2023-03-08T04:57:35.013Z,1.30
2023-03-08T05:01:36.719Z,1.20
2023-03-08T05:05:38.366Z,1.20
2023-03-08T05:09:40.062Z,1.30
2023-03-08T05:13:41.717Z,1.30
2023-03-08T05:17:43.356Z,1.30
2023-03-08T05:21:45.034Z,1.20
2023-03-08T05:25:46.751Z,1.20
2023-03-08T05:29:48.476Z,1.30
2023-03-08T05:33:51.536Z,1.30
2023-03-08T05:37:53.252Z,1.20
2023-03-08T05:41:54.878Z,1.20
2023-03-08T05:45:59.050Z,1.10
2023-03-08T05:50:00.834Z,1.00
2023-03-08T05:54:02.434Z,0.90
2023-03-08T05:58:04.044Z,0.90
2023-03-08T06:02:05.780Z,0.90
2023-03-08T06:06:07.578Z,0.80
2023-03-08T06:10:09.932Z,0.80
2023-03-08T06:14:13.246Z,0.80
2023-03-08T06:18:15.049Z,0.70
2023-03-08T06:22:17.269Z,0.70
2023-03-08T06:26:19.369Z,0.70
2023-03-08T06:30:21.104Z,0.70
2023-03-08T06:34:22.727Z,0.70
2023-03-08T06:38:24.926Z,0.60
2023-03-08T06:42:40.068Z,0.50
2023-03-08T06:46:42.990Z,0.50
2023-03-08T06:50:45.326Z,0.50
2023-03-08T06:54:46.970Z,0.50
2023-03-08T06:58:48.696Z,0.40
2023-03-08T07:02:50.394Z,0.40
2023-03-08T07:06:52.114Z,0.40
2023-03-08T07:10:53.944Z,0.30
2023-03-08T07:14:55.615Z,0.30
2023-03-08T07:18:57.217Z,0.40
2023-03-08T07:23:01.804Z,0.40
2023-03-08T07:27:03.862Z,0.50
2023-03-08T07:31:05.710Z,0.50
2023-03-08T07:35:09.636Z,0.60
2023-03-08T07:39:11.493Z,0.60
2023-03-08T07:43:13.148Z,0.60
2023-03-08T07:47:14.844Z,0.70
2023-03-08T07:51:16.569Z,0.70
2023-03-08T07:55:18.442Z,0.60
2023-03-08T07:59:20.531Z,0.50
2023-03-08T08:03:22.658Z,0.40
2023-03-08T08:07:24.357Z,0.50
2023-03-08T08:11:25.989Z,0.50
2023-03-08T08:15:30.572Z,0.50
2023-03-08T08:19:32.391Z,0.50
2023-03-08T08:23:35.142Z,0.40
2023-03-08T08:27:37.145Z,0.50
2023-03-08T08:31:38.866Z,0.40
2023-03-08T08:35:43.369Z,0.40
2023-03-08T08:39:45.362Z,0.50
2023-03-08T08:43:47.608Z,0.50
2023-03-08T08:47:49.283Z,0.50
2023-03-08T08:51:53.187Z,0.40
2023-03-08T08:55:54.859Z,0.50
2023-03-08T08:59:56.501Z,0.40
2023-03-08T09:03:59.310Z,0.50
2023-03-08T09:08:01.571Z,0.50
2023-03-08T09:12:03.381Z,0.50
2023-03-08T09:16:05.149Z,0.50
2023-03-08T09:20:10.745Z,0.60
2023-03-08T09:24:13.102Z,0.70
2023-03-08T09:28:14.919Z,0.80
2023-03-08T09:32:16.697Z,0.70
2023-03-08T09:36:19.039Z,0.70
2023-03-08T09:40:24.951Z,0.90
2023-03-08T09:44:50.664Z,1.00
2023-03-08T09:48:53.828Z,1.10
2023-03-08T09:53:18.061Z,1.10
2023-03-08T09:57:27.995Z,1.20
2023-03-08T10:01:50.501Z,1.10
2023-03-08T10:06:12.396Z,1.10
2023-03-08T10:10:24.473Z,1.10
2023-03-08T10:14:32.825Z,1.10
2023-03-08T10:18:43.095Z,1.10
2023-03-08T10:22:49.378Z,1.20
2023-03-08T10:26:51.032Z,1.30
2023-03-08T10:30:56.227Z,1.40
2023-03-08T10:35:04.441Z,1.50
2023-03-08T10:39:10.038Z,1.50
2023-03-08T10:43:39.437Z,1.60
2023-03-08T10:47:41.141Z,1.50
2023-03-08T10:51:52.952Z,1.40
2023-03-08T10:55:55.411Z,1.20
2023-03-08T11:00:02.420Z,1.30
2023-03-08T11:04:17.242Z,1.30
2023-03-08T11:08:22.852Z,1.50
2023-03-08T11:12:26.073Z,1.70
2023-03-08T11:16:37.081Z,1.80
2023-03-08T11:20:53.333Z,1.80
2023-03-08T11:25:14.708Z,1.80
2023-03-08T11:29:31.952Z,2.00
2023-03-08T11:34:01.990Z,2.00
2023-03-08T11:38:18.685Z,2.00
2023-03-08T11:42:42.072Z,2.10
2023-03-08T11:46:43.748Z,2.10
2023-03-08T11:50:53.572Z,2.20
2023-03-08T11:55:20.933Z,2.10
2023-03-08T11:59:34.433Z,1.90
2023-03-08T12:03:40.792Z,1.90
2023-03-08T12:07:52.673Z,1.70
2023-03-08T12:12:16.139Z,1.60
2023-03-08T12:16:20.037Z,1.70
2023-03-08T12:20:23.424Z,1.70
2023-03-08T12:24:34.200Z,1.70
2023-03-08T12:28:43.835Z,1.70
2023-03-08T12:32:47.313Z,1.70
2023-03-08T12:36:49.161Z,1.60
2023-03-08T12:40:53.650Z,1.70
2023-03-08T12:45:20.736Z,1.90
2023-03-08T12:49:30.510Z,1.90
2023-03-08T12:53:55.410Z,1.90
2023-03-08T12:58:00.441Z,1.90
2023-03-08T13:02:24.300Z,2.10
2023-03-08T13:06:25.983Z,2.10
2023-03-08T13:10:37.100Z,2.30
2023-03-08T13:14:41.981Z,2.40
2023-03-08T13:18:49.072Z,2.30
2023-03-08T13:23:10.175Z,2.30
2023-03-08T13:27:18.022Z,2.20
2023-03-08T13:31:22.309Z,2.20
2023-03-08T13:35:24.718Z,2.30
2023-03-08T13:39:29.934Z,2.30
2023-03-08T13:43:34.167Z,2.40
2023-03-08T13:47:39.292Z,2.30
2023-03-08T13:51:43.536Z,2.30
2023-03-08T13:55:47.318Z,2.30
2023-03-08T13:59:54.575Z,2.20
2023-03-08T14:03:58.245Z,2.00
2023-03-08T14:08:05.720Z,2.00
2023-03-08T14:12:07.738Z,2.10
2023-03-08T14:16:22.888Z,2.10
2023-03-08T14:20:25.522Z,2.10
2023-03-08T14:24:30.346Z,2.00
2023-03-08T14:28:41.508Z,2.00
2023-03-08T14:33:01.202Z,2.00
2023-03-08T14:37:12.166Z,1.90
2023-03-08T14:41:15.843Z,1.90
2023-03-08T14:45:17.748Z,2.00
2023-03-08T14:49:22.683Z,2.00
2023-03-08T14:53:34.662Z,2.00
2023-03-08T14:57:36.332Z,2.10
2023-03-08T15:01:39.229Z,2.10
2023-03-08T15:05:41.009Z,2.00
2023-03-08T15:09:42.878Z,2.10
2023-03-08T15:13:45.972Z,2.10
2023-03-08T15:17:48.344Z,2.10
2023-03-08T15:21:50.155Z,2.00
2023-03-08T15:25:52.212Z,2.10
2023-03-08T15:29:53.861Z,2.10
2023-03-08T15:33:55.607Z,2.10
2023-03-08T15:37:57.321Z,2.20
2023-03-08T15:41:59.815Z,2.10
2023-03-08T15:46:01.447Z,1.90
2023-03-08T15:50:04.952Z,2.00
2023-03-08T15:54:07.058Z,1.90
2023-03-08T15:58:10.740Z,1.90
2023-03-08T16:02:16.227Z,1.80
2023-03-08T16:06:18.140Z,1.90
2023-03-08T16:10:19.910Z,1.80
2023-03-08T16:14:21.737Z,1.90
2023-03-08T16:18:23.522Z,1.80
2023-03-08T16:22:26.898Z,1.90
2023-03-08T16:26:30.240Z,1.80
2023-03-08T16:30:33.027Z,1.80
2023-03-08T16:34:34.750Z,1.80
2023-03-08T16:38:36.422Z,1.70
2023-03-08T16:42:38.051Z,1.70
2023-03-08T16:46:41.731Z,1.60
2023-03-08T16:50:50.391Z,1.60
2023-03-08T16:54:52.034Z,1.50
2023-03-08T16:58:56.323Z,1.60
2023-03-08T17:02:57.943Z,1.50
2023-03-08T17:06:59.578Z,1.50
2023-03-08T17:11:03.484Z,1.60
2023-03-08T17:15:05.676Z,1.50
2023-03-08T17:19:08.907Z,1.50
2023-03-08T17:23:12.070Z,1.40
2023-03-08T17:27:14.819Z,1.40
2023-03-08T17:31:20.626Z,1.40
2023-03-08T17:35:22.543Z,1.40
2023-03-08T17:39:24.209Z,1.40
2023-03-08T17:43:26.157Z,1.40
2023-03-08T17:47:27.799Z,1.50
2023-03-08T17:51:30.899Z,1.30
2023-03-08T17:55:32.525Z,1.30
2023-03-08T17:59:34.195Z,1.30
2023-03-08T18:03:36.444Z,1.30
2023-03-08T18:07:41.258Z,1.20
2023-03-08T18:11:43.370Z,1.30
2023-03-08T18:15:44.995Z,1.30
2023-03-08T18:19:47.913Z,1.30
2023-03-08T18:23:49.698Z,1.20
2023-03-08T18:27:51.549Z,1.30
2023-03-08T18:31:53.243Z,1.30
2023-03-08T18:35:58.649Z,1.20
2023-03-08T18:40:00.322Z,1.30
2023-03-08T18:44:01.974Z,1.20
2023-03-08T18:48:03.657Z,1.30
2023-03-08T18:52:05.565Z,1.20
2023-03-08T18:56:07.598Z,1.20
2023-03-08T19:00:11.722Z,1.20
2023-03-08T19:04:13.330Z,1.30
2023-03-08T19:08:15.017Z,1.30
2023-03-08T19:12:16.747Z,1.30
2023-03-08T19:16:26.779Z,1.30
2023-03-08T19:20:29.312Z,1.20
2023-03-08T19:24:31.192Z,1.30
2023-03-08T19:28:32.794Z,1.30
2023-03-08T19:32:34.574Z,1.30
2023-03-08T19:36:37.289Z,1.30
2023-03-08T19:40:43.546Z,1.40
2023-03-08T19:44:48.321Z,1.40
2023-03-08T19:48:50.098Z,1.40
2023-03-08T19:52:51.722Z,1.40
2023-03-08T19:56:54.686Z,1.40
2023-03-08T20:01:08.463Z,1.40
2023-03-08T20:05:10.154Z,1.30
2023-03-08T20:09:13.423Z,1.30
2023-03-08T20:13:15.262Z,1.40
2023-03-08T20:17:16.930Z,1.40
2023-03-08T20:21:20.645Z,1.40
2023-03-08T20:25:22.336Z,1.50
2023-03-08T20:29:24.049Z,1.50
2023-03-08T20:33:25.922Z,1.50
2023-03-08T20:37:27.638Z,1.50
2023-03-08T20:41:30.085Z,1.60
2023-03-08T20:45:31.834Z,1.50
2023-03-08T20:49:33.592Z,1.50
2023-03-08T20:53:35.452Z,1.60
2023-03-08T20:57:37.134Z,1.60
2023-03-08T21:01:40.695Z,1.70
2023-03-08T21:05:42.788Z,1.70
2023-03-08T21:09:44.924Z,1.80
2023-03-08T21:13:50.388Z,1.70
2023-03-08T21:17:52.300Z,1.70
2023-03-08T21:21:54.046Z,1.70
2023-03-08T21:25:59.513Z,1.70
2023-03-08T21:30:01.720Z,1.80
2023-03-08T21:34:05.740Z,1.80
2023-03-08T21:38:08.109Z,1.90
2023-03-08T21:42:09.786Z,1.80
2023-03-08T21:46:11.529Z,1.80
2023-03-08T21:50:13.229Z,1.70
2023-03-08T21:54:15.477Z,1.80
2023-03-08T21:58:17.194Z,1.70
2023-03-08T22:02:18.855Z,1.80
2023-03-08T22:06:20.909Z,1.70
2023-03-08T22:10:22.601Z,1.70
2023-03-08T22:14:24.327Z,1.70
2023-03-08T22:18:25.999Z,1.70
2023-03-08T22:22:27.708Z,1.70
2023-03-08T22:26:31.073Z,1.70
2023-03-08T22:30:32.726Z,1.70
2023-03-08T22:34:34.534Z,1.70
2023-03-08T22:38:36.694Z,1.70
2023-03-08T22:42:38.766Z,1.60
2023-03-08T22:46:40.762Z,1.70
2023-03-08T22:50:42.533Z,1.70
2023-03-08T22:54:44.697Z,1.70
2023-03-08T22:58:46.560Z,1.70
2023-03-08T23:02:48.893Z,1.70
2023-03-08T23:06:50.596Z,1.70
2023-03-08T23:10:52.251Z,1.80
2023-03-08T23:14:54.049Z,1.80
2023-03-08T23:18:55.788Z,1.80
2023-03-08T23:22:57.842Z,1.80
2023-03-08T23:27:01.807Z,1.80
2023-03-08T23:31:09.797Z,1.80
2023-03-08T23:35:12.568Z,1.80
2023-03-08T23:39:14.378Z,1.90
2023-03-08T23:43:16.038Z,1.80
2023-03-08T23:47:17.688Z,1.80
2023-03-08T23:51:21.548Z,1.80
2023-03-08T23:55:23.241Z,1.80
2023-03-08T23:59:25.012Z,1.80
